Terminal Aerodrome Forecast
Issued by NWS Omaha/Valley, NE

Home | Current Version | Previous Version | Graphics & Text | Print | Product List | Glossary On
Versions: 1 2 3 4 5 6 7 8 9 10 11 12 13 14 15 16 17 18 19 20 21 22 23 24 25 26 27 28 29 30 31 32 33 34 35 36 37 38 39 40 41 42 43 44 45
000
FTUS43 KOAX 151518 AAA
TAFOFK
TAF AMD
KOFK 151518Z 1515/1612 33014G27KT 6SM FZRA BR SCT010 OVC015
      TEMPO 1515/1517 3SM -FZRAPL OVC010
     FM151700 33020G30KT 3SM -SN BR BKN008 OVC012
      TEMPO 1520/1522 1 1/2SM -SN
     FM160300 34025G35KT P6SM OVC012=

USA.gov is the U.S. government's official web portal to all federal, state and local government web resources and services.